Terminal Aerodrome Forecast
Issued by NWS

Home | Current Version | Previous Version | Graphics & Text | Print | Product List | Glossary On
Versions: 1 2 3 4 5 6 7 8 9 10 11 12 13 14 15 16 17 18 19 20 21 22
000
FTUS43 KFGF 302000 AAA
TAFBJI
TAF AMD
KBJI 302015Z 3020/3118 33015KT P6SM BKN035
      TEMPO 3020/3024 SCT040
     FM310100 34012KT P6SM SCT035=

USA.gov is the U.S. government's official web portal to all federal, state and local government web resources and services.